Time;durP1;ratioP1;P1;durP2;ratioP2;P2;SDS_P1;SDS_P2;PMS_P1;PMS_P2;Temp;Humidity;BMP_temperature;BMP_pressure;BME280_temperature;BME280_humidity;BME280_pressure;Samples;Min_cycle;Max_cycle;Signal;HPM_P1;HPM_P2
2022/08/03 00:02:22;;;;;;;5.88;1.83;;;19.80;99.90;;;;;;5040271;28;20130;-84
2022/08/03 00:04:47;;;;;;;7.68;2.13;;;19.60;99.90;;;;;;5018456;28;20049;-80
2022/08/03 00:07:13;;;;;;;8.27;1.90;;;19.60;99.90;;;;;;5041398;28;20044;-85
2022/08/03 00:09:39;;;;;;;6.25;1.52;;;19.60;99.90;;;;;;5037843;28;20103;-83
2022/08/03 00:12:05;;;;;;;5.88;1.73;;;19.50;99.90;;;;;;5039503;28;20030;-86
2022/08/03 00:14:31;;;;;;;5.57;1.83;;;19.50;99.90;;;;;;5006281;28;20462;-86
2022/08/03 00:16:57;;;;;;;5.43;1.40;;;19.60;99.90;;;;;;5038447;28;20037;-84
2022/08/03 00:19:22;;;;;;;9.70;2.40;;;19.80;99.90;;;;;;5041140;28;20041;-85
2022/08/03 00:21:48;;;;;;;12.48;1.90;;;19.50;99.90;;;;;;5039744;28;20543;-86
2022/08/03 00:24:14;;;;;;;5.65;1.67;;;20.30;99.90;;;;;;5019089;28;20056;-85
2022/08/03 00:26:39;;;;;;;4.72;1.98;;;19.40;99.90;;;;;;5029781;28;20427;-83
2022/08/03 00:29:05;;;;;;;7.32;1.55;;;19.40;99.90;;;;;;5042534;28;20087;-82
2022/08/03 00:31:31;;;;;;;7.47;2.13;;;20.10;99.90;;;;;;5038785;28;20531;-85
2022/08/03 00:33:56;;;;;;;3.85;1.60;;;20.10;99.90;;;;;;5037759;28;20127;-86
2022/08/03 00:36:22;;;;;;;4.68;1.58;;;20.30;99.90;;;;;;5024138;28;20167;-86
2022/08/03 00:38:47;;;;;;;7.13;1.90;;;19.40;99.90;;;;;;5042707;28;20052;-85
2022/08/03 00:41:13;;;;;;;9.32;1.58;;;19.40;99.90;;;;;;5044567;28;20033;-85
2022/08/03 00:43:39;;;;;;;8.32;1.42;;;19.40;99.90;;;;;;5043038;28;20122;-86
2022/08/03 00:46:04;;;;;;;7.50;1.40;;;19.40;99.90;;;;;;5039145;28;20096;-86
2022/08/03 00:48:30;;;;;;;8.68;2.47;;;19.30;99.90;;;;;;5041217;28;20041;-85
2022/08/03 00:50:56;;;;;;;6.85;1.65;;;19.40;99.90;;;;;;5006112;28;20048;-84
2022/08/03 00:53:22;;;;;;;5.22;1.27;;;19.50;99.90;;;;;;5040386;28;20047;-82
2022/08/03 00:55:47;;;;;;;8.40;1.70;;;20.00;99.90;;;;;;5026126;28;20041;-82
2022/08/03 00:58:13;;;;;;;5.95;1.20;;;19.30;99.90;;;;;;5043288;28;20042;-82
2022/08/03 01:00:40;;;;;;;6.88;1.85;;;19.80;99.90;;;;;;5040146;28;20061;-86
2022/08/03 01:03:07;;;;;;;18.80;1.95;;;19.20;99.90;;;;;;5039430;28;20060;-84
2022/08/03 01:05:46;;;;;;;9.40;1.92;;;19.20;99.90;;;;;;5042809;28;20143;-85
2022/08/03 01:08:47;;;;;;;8.13;1.65;;;19.20;99.90;;;;;;5035635;28;20387;-84
2022/08/03 01:11:37;;;;;;;7.03;1.63;;;19.20;99.90;;;;;;5042346;28;20037;-82
2022/08/03 01:14:14;;;;;;;3.42;1.52;;;19.10;99.90;;;;;;5023024;28;20041;-82
2022/08/03 01:16:58;;;;;;;6.05;1.52;;;19.90;99.90;;;;;;5044671;28;20060;-83
2022/08/03 01:19:30;;;;;;;8.23;1.30;;;19.10;99.90;;;;;;5039572;28;20136;-82
2022/08/03 01:22:04;;;;;;;4.72;1.40;;;19.10;99.90;;;;;;5019897;28;20512;-85
2022/08/03 01:24:51;;;;;;;6.50;2.22;;;19.10;99.90;;;;;;5040984;28;20041;-81
2022/08/03 01:27:24;;;;;;;5.55;1.15;;;18.60;99.90;;;;;;5046229;28;20052;-86
2022/08/03 01:30:02;;;;;;;5.63;1.38;;;19.10;99.90;;;;;;5045415;28;20583;-83
2022/08/03 01:33:04;;;;;;;4.38;1.10;;;19.10;99.90;;;;;;5041139;28;20099;-81
2022/08/03 01:35:44;;;;;;;4.50;1.65;;;19.10;99.90;;;;;;4983244;28;20110;-85
2022/08/03 01:38:16;;;;;;;10.88;1.58;;;19.00;99.90;;;;;;5047485;28;20033;-85
2022/08/03 01:40:43;;;;;;;8.70;1.30;;;19.40;99.90;;;;;;5047500;28;20094;-84
2022/08/03 01:43:15;;;;;;;3.33;1.20;;;19.00;99.90;;;;;;5041805;28;20036;-84
2022/08/03 01:45:42;;;;;;;4.80;1.80;;;19.00;99.90;;;;;;5042771;28;20602;-84
2022/08/03 01:48:11;;;;;;;3.08;1.13;;;18.90;99.90;;;;;;5039882;28;20047;-84
2022/08/03 01:50:37;;;;;;;4.88;1.63;;;18.90;99.90;;;;;;5025225;28;20049;-84
2022/08/03 01:53:04;;;;;;;13.32;2.65;;;19.20;99.90;;;;;;5050545;28;20033;-84
2022/08/03 01:55:32;;;;;;;3.35;1.55;;;18.90;99.90;;;;;;5045088;28;20044;-84
2022/08/03 01:58:00;;;;;;;5.72;1.27;;;18.90;99.90;;;;;;5041914;28;20045;-85
2022/08/03 02:00:26;;;;;;;3.75;1.50;;;19.60;99.90;;;;;;5040141;28;20436;-86
2022/08/03 02:02:54;;;;;;;4.20;1.45;;;18.90;99.90;;;;;;5049831;28;20163;-82
2022/08/03 02:05:23;;;;;;;5.68;1.70;;;18.90;99.90;;;;;;5040031;28;20073;-86
2022/08/03 02:07:49;;;;;;;8.68;1.98;;;18.90;99.90;;;;;;5046690;28;20056;-84
2022/08/03 02:10:18;;;;;;;9.80;2.03;;;19.60;99.90;;;;;;5042367;28;20076;-85
2022/08/03 02:12:45;;;;;;;9.15;1.40;;;18.80;99.90;;;;;;5050206;28;20041;-86
2022/08/03 02:15:14;;;;;;;5.15;1.25;;;19.40;99.90;;;;;;5039238;28;20517;-84
2022/08/03 02:17:41;;;;;;;4.90;1.00;;;18.90;99.90;;;;;;5041463;28;20479;-85
2022/08/03 02:20:10;;;;;;;5.32;1.60;;;18.80;99.90;;;;;;5044599;28;20040;-85
2022/08/03 02:22:39;;;;;;;7.88;1.70;;;18.80;99.90;;;;;;5044102;28;20460;-85
2022/08/03 02:25:10;;;;;;;8.32;1.75;;;18.80;99.90;;;;;;5044298;28;20118;-86
2022/08/03 02:27:41;;;;;;;5.10;1.20;;;18.80;99.90;;;;;;5039710;28;20044;-83
2022/08/03 02:30:09;;;;;;;5.05;1.08;;;18.80;99.90;;;;;;5040498;28;20516;-86
2022/08/03 02:32:38;;;;;;;9.35;1.40;;;18.80;99.90;;;;;;5048981;28;20080;-86
2022/08/03 02:35:08;;;;;;;3.85;1.33;;;18.80;99.90;;;;;;5043422;28;20092;-83
2022/08/03 02:37:40;;;;;;;9.20;1.85;;;18.80;99.90;;;;;;5046887;28;20033;-85
2022/08/03 02:40:08;;;;;;;7.90;1.48;;;18.80;99.90;;;;;;5042858;28;20033;-84
2022/08/03 02:42:35;;;;;;;5.93;1.20;;;18.70;99.90;;;;;;5046708;28;20033;-83
2022/08/03 02:45:05;;;;;;;6.60;1.80;;;18.70;99.90;;;;;;5010446;28;20040;-82
2022/08/03 02:47:33;;;;;;;9.43;1.80;;;18.70;99.90;;;;;;5020451;28;20041;-86
2022/08/03 02:50:00;;;;;;;8.05;1.70;;;18.70;99.90;;;;;;5046556;28;20500;-85
2022/08/03 02:52:28;;;;;;;8.80;2.25;;;18.60;99.90;;;;;;5044162;28;20046;-85
2022/08/03 02:55:00;;;;;;;9.15;1.67;;;18.60;99.90;;;;;;5027520;28;20045;-86
2022/08/03 02:57:28;;;;;;;11.68;2.00;;;18.60;99.90;;;;;;5045419;28;20106;-86
2022/08/03 02:59:56;;;;;;;7.00;1.65;;;19.40;99.90;;;;;;5039904;28;20048;-85
2022/08/03 03:02:23;;;;;;;11.68;1.85;;;18.60;99.90;;;;;;5026750;28;20151;-85
2022/08/03 03:04:50;;;;;;;7.88;1.75;;;19.10;99.90;;;;;;5045669;28;20033;-81
2022/08/03 03:07:17;;;;;;;5.53;2.08;;;18.50;99.90;;;;;;5042488;28;20049;-86
2022/08/03 03:09:43;;;;;;;6.40;1.48;;;18.50;99.90;;;;;;5042275;28;20063;-85
2022/08/03 03:12:11;;;;;;;7.10;1.88;;;18.50;99.90;;;;;;5003929;28;20041;-82
2022/08/03 03:14:37;;;;;;;7.80;1.60;;;18.50;99.90;;;;;;5025413;28;20081;-85
2022/08/03 03:17:05;;;;;;;3.70;1.45;;;18.50;99.90;;;;;;5026178;28;20033;-85
2022/08/03 03:19:31;;;;;;;10.38;1.80;;;18.50;99.90;;;;;;5042825;28;20043;-83
2022/08/03 03:22:00;;;;;;;5.20;1.23;;;18.50;99.90;;;;;;5042892;28;20029;-80
2022/08/03 03:24:27;;;;;;;9.25;1.55;;;18.50;99.90;;;;;;5045766;28;20052;-83
2022/08/03 03:26:53;;;;;;;11.10;1.70;;;18.50;99.90;;;;;;5041547;28;20025;-82
2022/08/03 03:29:20;;;;;;;10.10;2.17;;;18.40;99.90;;;;;;5038023;28;20041;-81
2022/08/03 03:31:46;;;;;;;10.75;1.70;;;18.90;99.90;;;;;;5041826;28;20051;-82
2022/08/03 03:34:12;;;;;;;10.38;1.88;;;18.60;99.90;;;;;;5044817;28;20037;-82
2022/08/03 03:36:38;;;;;;;6.72;1.58;;;18.40;99.90;;;;;;5046592;28;20041;-82
2022/08/03 03:39:03;;;;;;;7.35;2.15;;;18.40;99.90;;;;;;5038791;28;20040;-82
2022/08/03 03:41:29;;;;;;;7.28;1.50;;;18.40;99.90;;;;;;5039342;28;20049;-82
2022/08/03 03:43:55;;;;;;;4.75;1.55;;;18.40;99.90;;;;;;5040134;28;20040;-85
2022/08/03 03:46:21;;;;;;;10.77;1.45;;;18.30;99.90;;;;;;5042958;28;20393;-86
2022/08/03 03:48:47;;;;;;;4.75;1.65;;;18.30;99.90;;;;;;5042192;28;20496;-81
2022/08/03 03:51:13;;;;;;;8.15;1.77;;;18.30;99.90;;;;;;5038307;28;20037;-85
2022/08/03 03:53:39;;;;;;;7.38;2.10;;;19.20;99.90;;;;;;5033328;28;20045;-84
2022/08/03 03:56:05;;;;;;;4.55;1.80;;;18.70;99.90;;;;;;5040097;28;20049;-84
2022/08/03 03:58:31;;;;;;;10.95;2.15;;;18.30;99.90;;;;;;5039005;28;20515;-85
2022/08/03 04:00:57;;;;;;;7.80;2.08;;;18.30;99.90;;;;;;5035692;28;20033;-83
2022/08/03 04:03:23;;;;;;;6.25;1.70;;;18.30;99.90;;;;;;5044438;28;20064;-84
2022/08/03 04:11:21;;;;;;;5.75;2.03;;;18.20;99.90;;;;;;5047025;28;19929;-83
2022/08/03 04:13:54;;;;;;;6.28;1.75;;;18.20;99.90;;;;;;5044323;28;20509;-85
2022/08/03 04:16:25;;;;;;;7.30;1.73;;;18.20;99.90;;;;;;5042493;28;20056;-85
2022/08/03 04:18:56;;;;;;;7.93;1.73;;;18.30;99.90;;;;;;5043465;28;20041;-85
2022/08/03 04:21:22;;;;;;;8.35;1.70;;;18.20;99.90;;;;;;5025464;28;20408;-87
2022/08/03 04:23:51;;;;;;;7.32;1.70;;;18.80;99.90;;;;;;5037355;28;20045;-85
2022/08/03 04:26:20;;;;;;;3.10;2.17;;;18.20;99.90;;;;;;5039145;28;20045;-84
2022/08/03 04:28:48;;;;;;;8.13;1.90;;;18.20;99.90;;;;;;5035185;28;20123;-84
2022/08/03 04:31:15;;;;;;;8.60;1.98;;;18.10;99.90;;;;;;5041441;28;20063;-85
2022/08/03 04:33:43;;;;;;;9.30;2.33;;;18.20;99.90;;;;;;5041036;28;20175;-84
2022/08/03 04:36:12;;;;;;;6.00;2.17;;;18.20;99.90;;;;;;5037475;28;20041;-84
2022/08/03 04:38:53;;;;;;;5.88;1.70;;;18.20;99.90;;;;;;5042583;28;20044;-84
2022/08/03 04:41:23;;;;;;;10.60;3.92;;;18.10;99.90;;;;;;5048708;28;20092;-87
2022/08/03 04:43:52;;;;;;;8.90;4.00;;;18.20;99.90;;;;;;5035533;28;20044;-85
2022/08/03 04:46:21;;;;;;;7.75;3.17;;;18.20;99.90;;;;;;5029820;28;20132;-84
2022/08/03 04:48:47;;;;;;;11.55;3.17;;;18.90;99.90;;;;;;5035071;28;20038;-85
2022/08/03 04:51:13;;;;;;;8.63;2.53;;;18.80;99.90;;;;;;5038019;28;20353;-85
2022/08/03 04:53:52;;;;;;;12.52;2.60;;;18.20;99.90;;;;;;5046571;28;20088;-86
2022/08/03 04:56:19;;;;;;;9.30;2.50;;;18.20;99.90;;;;;;5047601;28;20033;-83
2022/08/03 04:58:45;;;;;;;6.80;2.38;;;18.30;99.90;;;;;;5046454;28;20041;-84
2022/08/03 05:01:10;;;;;;;8.00;2.10;;;18.30;99.90;;;;;;5047047;28;20052;-86
2022/08/03 05:03:37;;;;;;;8.82;2.45;;;18.70;99.90;;;;;;5046874;28;20081;-85
2022/08/03 05:06:03;;;;;;;7.18;2.17;;;18.30;99.90;;;;;;5046544;28;20120;-87
2022/08/03 05:08:28;;;;;;;9.07;2.50;;;19.20;99.90;;;;;;5044635;28;20125;-81
2022/08/03 05:10:55;;;;;;;8.93;2.25;;;18.30;99.90;;;;;;5024135;28;20497;-85
2022/08/03 05:13:20;;;;;;;13.88;7.00;;;18.30;99.90;;;;;;5048582;28;20481;-82
2022/08/03 05:15:46;;;;;;;13.35;3.47;;;18.90;99.90;;;;;;5047973;28;20049;-83
2022/08/03 05:18:12;;;;;;;7.20;2.60;;;18.40;99.90;;;;;;5045754;28;20037;-84
2022/08/03 05:20:37;;;;;;;10.32;2.13;;;18.40;99.90;;;;;;5047605;28;20065;-86
2022/08/03 05:23:03;;;;;;;11.15;2.05;;;18.40;99.90;;;;;;5048123;28;20128;-84
2022/08/03 05:25:29;;;;;;;8.25;2.72;;;18.40;99.90;;;;;;5047429;28;20045;-82
2022/08/03 05:27:55;;;;;;;11.60;1.92;;;18.40;99.90;;;;;;5046469;28;20370;-85
2022/08/03 05:30:21;;;;;;;7.90;2.50;;;18.50;99.90;;;;;;5043526;28;20182;-85
2022/08/03 05:32:46;;;;;;;7.88;2.20;;;18.50;99.90;;;;;;5040651;28;20052;-85
2022/08/03 05:35:12;;;;;;;4.80;2.00;;;18.50;99.90;;;;;;5049004;28;20037;-85
2022/08/03 05:37:41;;;;;;;8.20;2.33;;;18.60;99.90;;;;;;5049105;28;20044;-83
2022/08/03 05:40:07;;;;;;;10.98;2.60;;;18.60;99.90;;;;;;5046511;28;20163;-86
2022/08/03 05:42:35;;;;;;;8.75;2.65;;;18.60;99.90;;;;;;5041075;28;20504;-81
2022/08/03 05:45:13;;;;;;;11.60;2.40;;;18.60;99.90;;;;;;5044981;28;20512;-85
2022/08/03 05:47:39;;;;;;;9.55;2.58;;;18.70;99.90;;;;;;5044836;28;20068;-83
2022/08/03 05:50:05;;;;;;;10.00;2.50;;;18.90;99.90;;;;;;5026022;28;20049;-81
2022/08/03 05:52:31;;;;;;;14.18;2.53;;;18.70;99.90;;;;;;5040393;28;20060;-82
2022/08/03 05:54:56;;;;;;;8.82;2.53;;;19.10;99.90;;;;;;5041022;28;20037;-83
2022/08/03 05:57:22;;;;;;;10.15;2.60;;;19.10;99.90;;;;;;5036752;28;20056;-82
2022/08/03 05:59:48;;;;;;;9.68;2.40;;;18.80;99.90;;;;;;5043618;28;20611;-83
2022/08/03 06:02:13;;;;;;;8.75;2.80;;;18.90;99.90;;;;;;5044095;28;20060;-82
2022/08/03 06:04:39;;;;;;;10.43;2.50;;;19.10;99.90;;;;;;5044053;28;20041;-80
2022/08/03 06:07:04;;;;;;;10.65;3.55;;;19.40;99.90;;;;;;5043527;28;20175;-85
2022/08/03 06:09:30;;;;;;;14.10;2.90;;;19.00;99.90;;;;;;5038963;28;20485;-85
2022/08/03 06:11:55;;;;;;;11.40;3.45;;;19.00;99.90;;;;;;5042000;28;20040;-81
2022/08/03 06:14:21;;;;;;;9.77;2.40;;;19.10;99.90;;;;;;5045987;28;20465;-85
2022/08/03 06:16:47;;;;;;;8.88;2.67;;;19.10;99.90;;;;;;5041945;28;20053;-82
2022/08/03 06:19:12;;;;;;;10.23;2.78;;;19.20;99.90;;;;;;5043682;28;20057;-84
2022/08/03 06:21:38;;;;;;;9.90;2.13;;;19.20;99.90;;;;;;5040224;28;20063;-85
2022/08/03 06:24:03;;;;;;;11.50;3.08;;;19.20;99.90;;;;;;5029796;28;20036;-84
2022/08/03 06:26:31;;;;;;;12.05;2.47;;;19.30;99.90;;;;;;5046334;28;20110;-80
2022/08/03 06:28:56;;;;;;;12.73;2.72;;;19.30;99.90;;;;;;5042156;28;20036;-83
2022/08/03 06:31:25;;;;;;;16.15;3.20;;;19.30;99.90;;;;;;5034247;28;20445;-85
2022/08/03 06:33:52;;;;;;;6.53;2.40;;;19.40;99.90;;;;;;5051620;28;20091;-88
2022/08/03 06:36:17;;;;;;;17.23;3.88;;;19.40;99.90;;;;;;5033360;28;20840;-91
2022/08/03 06:38:43;;;;;;;13.77;5.53;;;19.40;99.90;;;;;;5030345;28;20045;-88
2022/08/03 06:41:09;;;;;;;11.70;3.03;;;19.70;99.90;;;;;;5060175;28;20037;-84
2022/08/03 06:43:36;;;;;;;16.48;2.85;;;20.00;99.90;;;;;;5048321;28;20021;-86
2022/08/03 06:46:03;;;;;;;13.40;2.88;;;19.50;99.90;;;;;;5024405;28;20057;-85
2022/08/03 06:48:28;;;;;;;12.75;2.83;;;19.60;99.90;;;;;;5029244;28;20092;-85
2022/08/03 06:50:54;;;;;;;14.05;3.05;;;19.60;99.90;;;;;;5043691;28;20132;-88
2022/08/03 06:53:20;;;;;;;9.95;2.75;;;19.70;99.90;;;;;;5048728;28;20037;-90
2022/08/03 06:55:47;;;;;;;15.73;3.63;;;19.70;99.90;;;;;;5051733;28;20036;-86
2022/08/03 06:58:16;;;;;;;10.68;2.92;;;19.80;99.90;;;;;;5057067;28;20051;-88
2022/08/03 07:00:42;;;;;;;9.80;2.58;;;19.80;99.90;;;;;;5042753;28;20080;-88
2022/08/03 07:03:08;;;;;;;13.48;3.17;;;19.90;99.90;;;;;;5022629;28;20785;-85
2022/08/03 07:05:34;;;;;;;10.00;2.72;;;19.90;99.90;;;;;;5048664;28;20087;-86
2022/08/03 07:08:00;;;;;;;10.55;2.70;;;20.30;99.90;;;;;;5042606;28;20033;-87
2022/08/03 07:10:26;;;;;;;13.07;2.78;;;20.00;99.90;;;;;;5045689;28;20033;-88
2022/08/03 07:12:52;;;;;;;11.82;3.67;;;20.10;99.90;;;;;;5046133;28;20507;-87
2022/08/03 07:15:18;;;;;;;18.58;3.50;;;20.10;99.90;;;;;;5045842;28;20079;-89
2022/08/03 07:17:44;;;;;;;7.43;2.88;;;20.20;99.90;;;;;;5045514;28;20037;-90
2022/08/03 07:20:12;;;;;;;9.80;3.17;;;20.20;99.90;;;;;;5050078;28;20118;-86
2022/08/03 07:22:37;;;;;;;8.77;3.35;;;20.30;99.90;;;;;;5040443;28;20041;-90
2022/08/03 07:25:04;;;;;;;11.43;3.22;;;20.50;99.90;;;;;;5043603;28;20037;-90
2022/08/03 07:27:29;;;;;;;10.73;3.00;;;20.40;99.90;;;;;;5040088;28;20041;-84
2022/08/03 07:29:56;;;;;;;9.38;3.17;;;20.40;99.90;;;;;;5042517;28;20067;-79
2022/08/03 07:32:23;;;;;;;13.98;3.22;;;20.50;99.90;;;;;;5048658;28;20099;-84
2022/08/03 07:34:48;;;;;;;9.82;2.67;;;20.50;99.90;;;;;;5040386;28;20045;-80
2022/08/03 07:37:14;;;;;;;10.35;3.45;;;20.60;99.90;;;;;;5039078;28;20097;-80
2022/08/03 07:39:40;;;;;;;17.02;3.50;;;20.60;99.90;;;;;;5045377;28;20033;-83
2022/08/03 07:42:06;;;;;;;14.25;3.55;;;20.70;99.90;;;;;;5023933;28;20508;-81
2022/08/03 07:44:31;;;;;;;14.40;4.10;;;20.70;99.90;;;;;;4323138;28;10000717;-81
2022/08/03 07:46:57;;;;;;;11.75;3.78;;;20.70;99.90;;;;;;5045827;28;20048;-79
2022/08/03 07:49:23;;;;;;;13.38;3.42;;;20.90;99.90;;;;;;5032471;28;20465;-79
2022/08/03 07:52:46;;;;;;;11.10;2.90;;;20.90;99.90;;;;;;5042568;28;20041;-81
2022/08/03 07:54:34;;;;;;;14.07;3.17;;;21.00;99.90;;;;;;5027962;28;20476;-81
2022/08/03 07:56:59;;;;;;;12.20;3.75;;;21.20;99.90;;;;;;5040607;28;20045;-80
2022/08/03 07:59:25;;;;;;;13.23;3.35;;;21.00;99.90;;;;;;5015422;28;20037;-75
2022/08/03 08:01:52;;;;;;;13.30;3.58;;;21.10;99.90;;;;;;5045750;28;20194;-78
2022/08/03 08:04:18;;;;;;;14.52;3.55;;;21.20;99.90;;;;;;5042930;28;20049;-80
2022/08/03 08:06:43;;;;;;;13.38;3.45;;;21.30;99.90;;;;;;5040060;28;20095;-83
2022/08/03 08:09:10;;;;;;;10.00;3.53;;;21.40;99.90;;;;;;5043143;28;20084;-81
2022/08/03 08:11:36;;;;;;;14.13;3.55;;;21.20;99.90;;;;;;5047977;28;20499;-78
2022/08/03 08:14:04;;;;;;;13.07;3.28;;;21.40;99.90;;;;;;5026226;28;20586;-80
2022/08/03 08:16:30;;;;;;;13.57;3.70;;;21.30;99.90;;;;;;5041013;28;20117;-82
2022/08/03 08:18:55;;;;;;;11.57;3.20;;;21.30;99.90;;;;;;5046090;28;20471;-80
2022/08/03 08:21:21;;;;;;;12.63;3.30;;;21.40;99.90;;;;;;5022278;28;20052;-76
2022/08/03 08:23:47;;;;;;;13.25;3.63;;;21.40;99.90;;;;;;5041103;28;20051;-76
2022/08/03 08:26:12;;;;;;;11.73;3.72;;;21.90;99.90;;;;;;5018795;28;20042;-81
2022/08/03 08:28:39;;;;;;;19.35;3.95;;;21.70;99.90;;;;;;5036335;28;20072;-82
2022/08/03 08:31:05;;;;;;;9.63;3.47;;;21.60;99.90;;;;;;5042778;28;20095;-81
2022/08/03 08:33:33;;;;;;;9.73;2.70;;;21.60;99.90;;;;;;5044040;28;20052;-82
2022/08/03 08:35:59;;;;;;;9.15;2.63;;;22.00;99.90;;;;;;5043683;28;20044;-74
2022/08/03 08:38:25;;;;;;;13.13;3.30;;;21.80;99.90;;;;;;5043589;28;20033;-82
2022/08/03 08:40:53;;;;;;;13.82;3.88;;;21.70;99.90;;;;;;4699004;28;10000297;-85
2022/08/03 08:43:19;;;;;;;13.95;2.80;;;21.80;99.90;;;;;;5054045;28;20392;-85
2022/08/03 08:45:50;;;;;;;15.60;4.45;;;21.80;99.90;;;;;;5049218;28;20041;-79
2022/08/03 08:48:22;;;;;;;13.40;3.88;;;21.90;99.90;;;;;;5036183;28;20133;-87
2022/08/03 08:50:51;;;;;;;12.70;4.07;;;21.90;99.90;;;;;;5016846;28;20057;-88
2022/08/03 08:53:18;;;;;;;6.00;3.53;;;22.00;99.90;;;;;;5008570;28;20049;-83
2022/08/03 08:55:46;;;;;;;11.65;3.72;;;22.70;99.90;;;;;;5004706;28;20561;-82
2022/08/03 08:58:12;;;;;;;11.68;4.28;;;22.20;99.90;;;;;;5043385;28;20045;-80
2022/08/03 09:00:38;;;;;;;11.93;3.80;;;22.30;99.90;;;;;;5036121;28;20044;-81
2022/08/03 09:03:03;;;;;;;10.48;3.55;;;22.20;99.90;;;;;;5017720;28;20053;-81
2022/08/03 09:05:31;;;;;;;13.98;3.55;;;22.20;99.90;;;;;;5009484;28;20499;-84
2022/08/03 09:07:57;;;;;;;10.88;4.05;;;22.20;99.90;;;;;;5016836;28;20050;-81
2022/08/03 09:10:23;;;;;;;14.10;3.78;;;22.30;99.90;;;;;;5014675;28;20064;-81
2022/08/03 09:12:50;;;;;;;10.02;3.78;;;22.30;99.90;;;;;;5006565;28;20080;-86
2022/08/03 09:15:24;;;;;;;15.75;3.92;;;22.80;99.90;;;;;;5017079;28;20033;-85
2022/08/03 09:17:52;;;;;;;14.90;4.22;;;22.40;99.90;;;;;;5016653;28;20509;-83
2022/08/03 09:20:19;;;;;;;11.88;4.45;;;22.40;99.90;;;;;;5003900;28;20057;-85
2022/08/03 09:22:59;;;;;;;10.13;4.50;;;22.50;99.90;;;;;;5020197;28;20383;-83
2022/08/03 09:25:31;;;;;;;17.80;5.05;;;22.60;99.90;;;;;;5013235;28;20049;-81
2022/08/03 09:28:10;;;;;;;12.43;3.83;;;22.60;99.90;;;;;;5008816;28;20455;-80
2022/08/03 09:30:38;;;;;;;12.93;3.92;;;22.60;99.90;;;;;;5016422;28;20076;-82
2022/08/03 09:33:06;;;;;;;11.65;3.75;;;22.70;99.90;;;;;;5015920;28;20153;-80
2022/08/03 09:35:38;;;;;;;9.27;3.70;;;22.80;99.90;;;;;;5017545;28;20049;-83
2022/08/03 09:38:15;;;;;;;16.58;5.30;;;22.90;99.90;;;;;;5009537;28;20494;-82
2022/08/03 09:40:42;;;;;;;16.27;4.50;;;23.00;99.90;;;;;;5016069;28;20041;-82
2022/08/03 09:43:08;;;;;;;12.98;3.90;;;23.10;99.90;;;;;;5014031;28;20129;-84
2022/08/03 09:45:35;;;;;;;14.43;4.20;;;23.10;99.90;;;;;;5028681;28;20054;-82
2022/08/03 09:48:23;;;;;;;16.42;4.20;;;23.10;99.90;;;;;;5013148;28;20441;-84
2022/08/03 09:50:59;;;;;;;12.45;3.53;;;23.20;99.90;;;;;;5014721;28;20041;-85
2022/08/03 09:53:27;;;;;;;8.98;3.65;;;23.30;99.90;;;;;;5040705;28;20053;-83
2022/08/03 09:56:01;;;;;;;15.20;4.00;;;23.40;99.90;;;;;;5017905;28;20037;-86
2022/08/03 09:58:28;;;;;;;;;;;23.40;99.90;;;;;;5015920;28;20076;-80
2022/08/03 10:01:04;;;;;;;12.65;3.88;;;23.50;99.90;;;;;;5009579;28;19921;-82
2022/08/03 10:03:37;;;;;;;11.27;4.10;;;23.50;99.90;;;;;;5037978;28;20524;-82
2022/08/03 10:06:19;;;;;;;14.07;4.00;;;23.60;99.90;;;;;;5028400;28;20083;-78
2022/08/03 10:09:14;;;;;;;12.73;3.90;;;23.70;99.90;;;;;;5043930;28;20068;-82
2022/08/03 10:11:41;;;;;;;13.00;4.07;;;23.80;99.90;;;;;;5036938;28;20048;-80
2022/08/03 10:14:10;;;;;;;11.43;3.72;;;23.80;99.90;;;;;;5028760;28;20055;-82
2022/08/03 10:16:37;;;;;;;11.63;4.10;;;23.80;99.90;;;;;;5037015;28;20037;-79
2022/08/03 10:19:06;;;;;;;15.57;4.40;;;23.80;99.90;;;;;;5037680;28;20401;-79
2022/08/03 10:21:34;;;;;;;13.40;3.78;;;23.90;99.90;;;;;;5043090;28;20096;-80
2022/08/03 10:24:05;;;;;;;11.70;3.40;;;24.00;99.90;;;;;;5014406;28;20088;-79
2022/08/03 10:26:33;;;;;;;14.80;3.90;;;24.00;99.90;;;;;;5028556;28;20122;-81
2022/08/03 10:29:02;;;;;;;14.55;4.30;;;24.10;99.90;;;;;;5043818;28;20045;-80
2022/08/03 10:31:36;;;;;;;12.68;4.38;;;24.20;99.90;;;;;;5047212;28;20037;-79
2022/08/03 10:34:05;;;;;;;14.63;4.15;;;24.20;99.90;;;;;;5020069;28;20599;-83
2022/08/03 10:36:34;;;;;;;14.75;4.20;;;24.20;99.90;;;;;;5042073;28;20048;-79
2022/08/03 10:39:02;;;;;;;13.98;4.22;;;24.30;99.90;;;;;;5029037;28;20049;-84
2022/08/03 10:41:34;;;;;;;13.23;4.13;;;24.40;99.90;;;;;;5036277;28;20045;-78
2022/08/03 10:44:03;;;;;;;17.23;4.32;;;24.50;99.90;;;;;;5047585;28;20041;-81
2022/08/03 10:46:28;;;;;;;18.67;5.10;;;24.50;99.90;;;;;;5042359;28;20049;-82
2022/08/03 10:48:55;;;;;;;12.77;4.85;;;24.60;99.90;;;;;;5009859;28;20057;-82
2022/08/03 10:51:21;;;;;;;15.98;3.65;;;24.70;99.90;;;;;;5041117;28;20056;-80
2022/08/03 10:53:47;;;;;;;18.88;4.95;;;24.80;99.90;;;;;;5042629;28;20091;-78
2022/08/03 10:59:19;;;;;;;14.35;4.93;;;24.90;99.90;;;;;;5045764;28;20049;-79
2022/08/03 11:01:55;;;;;;;13.82;4.43;;;25.00;99.90;;;;;;5051994;28;20150;-80
2022/08/03 11:04:23;;;;;;;16.55;5.85;;;25.10;99.90;;;;;;5031956;28;20045;-82
2022/08/03 11:07:14;;;;;;;17.35;5.57;;;25.10;99.90;;;;;;5046325;28;20038;-81
2022/08/03 11:09:48;;;;;;;16.88;5.45;;;25.20;99.90;;;;;;5039121;28;20069;-81
2022/08/03 11:12:31;;;;;;;15.23;4.50;;;25.20;99.90;;;;;;5046100;28;20065;-82
2022/08/03 11:15:04;;;;;;;21.15;5.88;;;25.30;99.90;;;;;;5029032;28;20430;-81
2022/08/03 11:17:31;;;;;;;18.58;5.35;;;25.40;99.90;;;;;;5037682;28;20045;-76
2022/08/03 11:19:57;;;;;;;20.75;6.07;;;25.50;99.90;;;;;;5018543;28;20516;-79
2022/08/03 11:22:23;;;;;;;15.50;5.00;;;25.50;99.90;;;;;;5027566;28;20044;-77
2022/08/03 11:24:56;;;;;;;22.20;6.18;;;25.60;99.90;;;;;;5042398;28;20087;-79
2022/08/03 11:27:27;;;;;;;16.80;6.20;;;25.60;99.90;;;;;;5037722;28;20049;-79
2022/08/03 11:30:06;;;;;;;23.20;7.05;;;25.80;99.90;;;;;;5041030;28;20489;-79
2022/08/03 11:32:38;;;;;;;22.77;7.07;;;25.80;99.90;;;;;;5041638;28;20077;-79
2022/08/03 11:35:44;;;;;;;19.88;6.22;;;25.90;99.90;;;;;;5039725;28;20049;-78
2022/08/03 11:38:10;;;;;;;20.58;5.93;;;26.00;99.90;;;;;;5010224;28;20067;-78
2022/08/03 11:40:52;;;;;;;20.52;5.70;;;26.10;99.90;;;;;;5025256;28;20037;-78
2022/08/03 11:43:20;;;;;;;20.02;5.55;;;26.20;99.90;;;;;;5038892;28;20493;-79
2022/08/03 11:45:59;;;;;;;21.38;7.47;;;26.30;99.90;;;;;;5026911;28;20412;-79
2022/08/03 11:48:32;;;;;;;16.02;5.90;;;26.40;99.90;;;;;;5038957;28;20523;-80
2022/08/03 11:51:01;;;;;;;15.43;5.10;;;26.30;99.90;;;;;;5039056;28;20402;-76
2022/08/03 11:53:27;;;;;;;13.85;4.95;;;26.40;99.90;;;;;;5036893;28;20637;-79
2022/08/03 11:55:53;;;;;;;24.67;5.35;;;26.50;99.90;;;;;;5042266;28;20080;-78
2022/08/03 11:58:20;;;;;;;23.73;4.95;;;26.60;99.90;;;;;;5042021;28;20416;-78
2022/08/03 12:00:47;;;;;;;17.13;5.47;;;26.70;99.90;;;;;;5042647;28;20025;-79
2022/08/03 12:03:15;;;;;;;20.90;6.10;;;26.80;99.90;;;;;;5042083;28;20132;-78
2022/08/03 12:05:43;;;;;;;17.58;4.35;;;26.80;99.90;;;;;;5037450;28;20072;-79
2022/08/03 12:08:11;;;;;;;18.27;5.97;;;26.80;99.90;;;;;;5041819;28;20056;-78
2022/08/03 12:10:38;;;;;;;19.15;6.20;;;26.80;99.90;;;;;;5040640;28;20072;-78
2022/08/03 12:13:07;;;;;;;19.80;5.38;;;26.90;99.90;;;;;;5043440;28;20048;-77
2022/08/03 12:15:33;;;;;;;20.63;6.00;;;26.90;99.90;;;;;;5026685;28;20505;-76
2022/08/03 12:18:00;;;;;;;23.33;6.18;;;26.90;99.90;;;;;;5039711;28;20550;-76
2022/08/03 12:20:29;;;;;;;22.88;5.65;;;27.00;99.90;;;;;;5036380;28;20037;-72
2022/08/03 12:23:04;;;;;;;21.10;7.20;;;27.10;99.90;;;;;;5009566;28;20099;-76
2022/08/03 12:25:30;;;;;;;13.45;5.82;;;27.10;99.90;;;;;;5038603;28;20049;-79
2022/08/03 12:28:23;;;;;;;19.63;6.88;;;27.20;99.90;;;;;;5018102;28;20051;-72
2022/08/03 12:30:51;;;;;;;23.35;7.18;;;27.20;99.90;;;;;;5041378;28;20043;-76
2022/08/03 12:33:23;;;;;;;22.20;5.85;;;27.20;99.90;;;;;;5041518;28;20044;-77
2022/08/03 12:36:07;;;;;;;20.60;6.20;;;27.30;99.90;;;;;;5042022;28;20103;-77
2022/08/03 12:38:34;;;;;;;;;;;27.30;99.90;;;;;;5040212;28;20494;-76
2022/08/03 12:41:05;;;;;;;20.92;5.70;;;27.40;99.90;;;;;;5022776;28;20015;-77
2022/08/03 12:43:31;;;;;;;20.85;5.38;;;27.50;99.90;;;;;;5003677;28;20075;-74
2022/08/03 12:46:17;;;;;;;20.92;5.65;;;27.70;99.90;;;;;;5041644;28;20092;-74
2022/08/03 12:49:14;;;;;;;19.60;6.85;;;27.70;99.90;;;;;;5042744;28;20389;-75
2022/08/03 12:51:42;;;;;;;16.75;6.10;;;27.60;99.90;;;;;;5038307;28;20045;-83
2022/08/03 12:54:14;;;;;;;20.38;5.72;;;27.50;99.90;;;;;;5039128;28;20084;-83
2022/08/03 12:56:56;;;;;;;17.40;5.40;;;27.50;99.90;;;;;;5029469;28;20034;-81
2022/08/03 12:59:26;;;;;;;17.50;4.88;;;27.60;99.90;;;;;;5040896;28;20087;-87